Rodney Mitchell — WCV8372 — position and weather

sailwx.info

Track history (hours):
 
Tides and Currents Weather Stations Pressure Air Temp Water Temp Dewpoint Dewpoint Depression Visibility Wind Speed Wind Dir Waves Ship Positions

Rodney Mitchell

Owner: VINTON CROSBY INC, GOLDEN MEADOW, LA. More information available from US FCC via Universal Licensing System and Coast Guard Vessel Documentation Center.

Last reported at 2015-Feb-26 21:34 UTC. Time now 2015-Feb-28 19:23 UTC.
Position N 29°32' W 094°54'.

; draft 3 m.

Type: Towing. MMSI: 367028860.

Date/timePositionNaut miles runAvg speedWind from/ knotsBaromVisibWave heightAir tempDewpointWater temp
2015-Feb-26 21:34N 29°32' W 094°54'5 4.8
2015-Feb-26 20:34N 29°36' W 094°57'5 5.2
2015-Feb-26 19:33N 29°41' W 094°59'5 4.9
2015-Feb-26 18:33N 29°44' W 095°03'4 3.9
2015-Feb-26 17:33N 29°44' W 095°07'5 4.9
2015-Feb-26 16:32N 29°43' W 095°13'1 0.7
2015-Feb-26 14:33N 29°43' W 095°15'0 0.1
2015-Feb-26 13:23N 29°43' W 095°15'0 0.0
2015-Feb-25 22:25N 29°43' W 095°14'4 4.5
2015-Feb-25 21:27N 29°44' W 095°09'3 3.8
2015-Feb-25 20:32N 29°46' W 095°06'1 0.2
2015-Feb-25 15:33N 29°46' W 095°05'5 5.2
2015-Feb-25 14:33N 29°42' W 095°00'6 5.6
2015-Feb-25 13:33N 29°37' W 094°57'6 5.7
2015-Feb-25 12:33N 29°32' W 094°54'5 5.3
2015-Feb-25 11:32N 29°28' W 094°51'5 4.7
2015-Feb-25 10:33N 29°23' W 094°49'  
2015-Feb-21 20:33N 29°30' W 094°52'6 6.2
2015-Feb-21 19:33N 29°35' W 094°56'6 6.2
2015-Feb-21 18:33N 29°41' W 094°59'6 5.6
2015-Feb-21 17:33N 29°45' W 095°04'3 2.9
2015-Feb-21 16:34N 29°48' W 095°04'2 1.9
2015-Feb-21 15:19N 29°46' W 095°06'0 0.1
2015-Feb-21 14:33N 29°46' W 095°06'0 0.0
2015-Feb-21 13:33N 29°46' W 095°06'0 0.0
2015-Feb-21 12:33N 29°46' W 095°06'0 0.0
2015-Feb-21 11:33N 29°46' W 095°06'0 0.0
2015-Feb-21 10:33N 29°46' W 095°06'0 0.0
2015-Feb-21 09:33N 29°46' W 095°06'0 0.0
2015-Feb-21 08:33N 29°46' W 095°06'0 0.0
2015-Feb-21 07:34N 29°46' W 095°06'0 0.0
2015-Feb-21 06:33N 29°46' W 095°06'0 0.0
2015-Feb-21 04:25N 29°46' W 095°06'0 0.0
2015-Feb-21 01:32N 29°46' W 095°06'0 0.0
2015-Feb-20 23:20N 29°46' W 095°06'0 0.0
2015-Feb-20 22:33N 29°46' W 095°06'0 0.0
2015-Feb-20 21:34N 29°46' W 095°06'2 2.3
2015-Feb-20 20:33N 29°47' W 095°04'2 2.2
2015-Feb-20 19:33N 29°45' W 095°04'5 5.3
2015-Feb-20 18:33N 29°42' W 094°60'6 5.5
2015-Feb-20 17:33N 29°37' W 094°57'6 5.6
2015-Feb-20 16:33N 29°32' W 094°54'6 5.5
2015-Feb-20 15:33N 29°27' W 094°51'  
Track history (hours):
 
Tides and Currents Weather Stations Pressure Air Temp Water Temp Dewpoint Dewpoint Depression Visibility Wind Speed Wind Dir Waves Ship Positions

Rodney Mitchell

Owner: VINTON CROSBY INC, GOLDEN MEADOW, LA. More information available from US FCC via Universal Licensing System and Coast Guard Vessel Documentation Center.

Last reported at 2015-Feb-26 21:34 UTC. Time now 2015-Feb-28 19:23 UTC.
Position N 29°32' W 094°54'.

; draft 3 m.

Type: Towing. MMSI: 367028860.

Date/timePositionNaut miles runAvg speedWind from/ knotsBaromVisibWave heightAir tempDewpointWater temp
2015-Feb-26 21:34N 29°32' W 094°54'5 4.8
2015-Feb-26 20:34N 29°36' W 094°57'5 5.2
2015-Feb-26 19:33N 29°41' W 094°59'5 4.9
2015-Feb-26 18:33N 29°44' W 095°03'4 3.9
2015-Feb-26 17:33N 29°44' W 095°07'5 4.9
2015-Feb-26 16:32N 29°43' W 095°13'1 0.7
2015-Feb-26 14:33N 29°43' W 095°15'0 0.1
2015-Feb-26 13:23N 29°43' W 095°15'0 0.0
2015-Feb-25 22:25N 29°43' W 095°14'4 4.5
2015-Feb-25 21:27N 29°44' W 095°09'3 3.8
2015-Feb-25 20:32N 29°46' W 095°06'1 0.2
2015-Feb-25 15:33N 29°46' W 095°05'5 5.2
2015-Feb-25 14:33N 29°42' W 095°00'6 5.6
2015-Feb-25 13:33N 29°37' W 094°57'6 5.7
2015-Feb-25 12:33N 29°32' W 094°54'5 5.3
2015-Feb-25 11:32N 29°28' W 094°51'5 4.7
2015-Feb-25 10:33N 29°23' W 094°49'  
2015-Feb-21 20:33N 29°30' W 094°52'6 6.2
2015-Feb-21 19:33N 29°35' W 094°56'6 6.2
2015-Feb-21 18:33N 29°41' W 094°59'6 5.6
2015-Feb-21 17:33N 29°45' W 095°04'3 2.9
2015-Feb-21 16:34N 29°48' W 095°04'2 1.9
2015-Feb-21 15:19N 29°46' W 095°06'0 0.1
2015-Feb-21 14:33N 29°46' W 095°06'0 0.0
2015-Feb-21 13:33N 29°46' W 095°06'0 0.0
2015-Feb-21 12:33N 29°46' W 095°06'0 0.0
2015-Feb-21 11:33N 29°46' W 095°06'0 0.0
2015-Feb-21 10:33N 29°46' W 095°06'0 0.0
2015-Feb-21 09:33N 29°46' W 095°06'0 0.0
2015-Feb-21 08:33N 29°46' W 095°06'0 0.0
2015-Feb-21 07:34N 29°46' W 095°06'0 0.0
2015-Feb-21 06:33N 29°46' W 095°06'0 0.0
2015-Feb-21 04:25N 29°46' W 095°06'0 0.0
2015-Feb-21 01:32N 29°46' W 095°06'0 0.0
2015-Feb-20 23:20N 29°46' W 095°06'0 0.0
2015-Feb-20 22:33N 29°46' W 095°06'0 0.0
2015-Feb-20 21:34N 29°46' W 095°06'2 2.3
2015-Feb-20 20:33N 29°47' W 095°04'2 2.2
2015-Feb-20 19:33N 29°45' W 095°04'5 5.3
2015-Feb-20 18:33N 29°42' W 094°60'6 5.5
2015-Feb-20 17:33N 29°37' W 094°57'6 5.6
2015-Feb-20 16:33N 29°32' W 094°54'6 5.5
2015-Feb-20 15:33N 29°27' W 094°51'  

Dump ship's entire track history